Time;durP1;ratioP1;P1;durP2;ratioP2;P2;SDS_P1;SDS_P2;PMS_P1;PMS_P2;Temp;Humidity;BMP_temperature;BMP_pressure;BME280_temperature;BME280_humidity;BME280_pressure;Samples;Min_cycle;Max_cycle;Signal;HPM_P1;HPM_P2
2022/05/14 00:01:49;;;;;;;9.00;3.80;;;;;;;15.36;61.02;99260.47;4520317;78;21068;-82
2022/05/14 00:07:51;;;;;;;6.55;4.03;;;;;;;15.25;60.75;99261.86;4503726;78;21047;-82
2022/05/14 00:13:55;;;;;;;5.35;3.77;;;;;;;15.18;60.93;99259.14;4495255;78;21058;-82
2022/05/14 00:19:56;;;;;;;8.00;3.83;;;;;;;15.16;61.88;99275.30;4491340;78;21008;-82
2022/05/14 00:25:57;;;;;;;5.00;3.17;;;;;;;15.15;61.89;99274.31;4493473;78;21956;-82
2022/05/14 00:31:59;;;;;;;7.33;3.35;;;;;;;15.22;62.68;99271.55;4484848;78;21084;-82
2022/05/14 00:38:01;;;;;;;6.70;3.72;;;;;;;15.27;62.94;99269.73;4495024;78;21058;-82
2022/05/14 00:44:03;;;;;;;6.22;3.70;;;;;;;15.21;63.07;99272.13;4489261;78;20979;-82
2022/05/14 00:50:22;;;;;;;6.75;3.92;;;;;;;15.19;63.73;99278.63;4497133;78;20980;-82
2022/05/14 00:56:28;;;;;;;5.70;3.52;;;;;;;15.08;63.50;99278.48;4475802;78;21054;-81
2022/05/14 01:02:30;;;;;;;8.57;3.90;;;;;;;14.80;63.24;99273.80;4489319;78;21121;-82
2022/05/14 01:08:32;;;;;;;6.92;4.20;;;;;;;14.75;64.11;99276.94;4490253;78;21031;-83
2022/05/14 01:14:34;;;;;;;11.15;4.25;;;;;;;14.80;64.45;99266.14;4487462;78;21006;-82
2022/05/14 01:20:37;;;;;;;8.03;4.10;;;;;;;14.69;64.38;99270.27;4493776;78;20940;-82
2022/05/14 01:26:41;;;;;;;6.37;4.22;;;;;;;14.42;64.50;99275.20;4460949;79;22021;-82
2022/05/14 01:33:04;;;;;;;9.13;5.90;;;;;;;14.32;64.75;99286.99;4447824;78;21011;-81
2022/05/14 01:38:55;;;;;;;13.58;6.53;;;;;;;14.17;64.73;99282.81;4433472;78;21604;-82
2022/05/14 01:44:56;;;;;;;11.63;6.35;;;;;;;13.76;64.43;99292.58;4443757;79;20993;-82
2022/05/14 01:50:58;;;;;;;11.80;7.15;;;;;;;13.43;65.00;99293.42;4452266;79;20989;-82
2022/05/14 01:56:59;;;;;;;10.53;6.40;;;;;;;13.16;65.27;99290.73;4439715;79;21032;-84
2022/05/14 02:03:00;;;;;;;9.73;5.53;;;;;;;12.92;65.94;99292.73;4440130;79;21409;-81
2022/05/14 02:09:06;;;;;;;15.23;7.40;;;;;;;12.58;66.12;99283.84;4377704;80;21025;-81
2022/05/14 02:15:09;;;;;;;8.38;5.90;;;;;;;12.45;66.79;99288.84;4405745;80;21030;-82
2022/05/14 02:21:12;;;;;;;23.98;10.18;;;;;;;12.33;67.50;99286.98;4216001;82;21054;-81
2022/05/14 02:27:14;;;;;;;11.45;6.90;;;;;;;11.95;67.53;99281.94;4217727;83;21075;-82
2022/05/14 02:33:17;;;;;;;15.98;7.90;;;;;;;11.44;68.31;99282.29;4231700;83;21074;-81
2022/05/14 02:39:19;;;;;;;15.00;7.30;;;;;;;11.05;69.27;99283.17;4226300;82;21068;-81
2022/05/14 02:45:21;;;;;;;10.68;7.70;;;;;;;11.19;69.90;99281.19;4250969;83;21031;-81
2022/05/14 02:51:22;;;;;;;12.25;8.43;;;;;;;11.01;69.68;99268.61;4251199;82;21063;-81
2022/05/14 02:57:24;;;;;;;15.43;9.75;;;;;;;11.04;70.08;99280.20;4242174;83;22005;-81
2022/05/14 03:03:26;;;;;;;9.83;7.80;;;;;;;10.96;70.04;99281.29;4244483;83;21076;-81
2022/05/14 03:09:28;;;;;;;13.32;8.90;;;;;;;10.79;71.25;99288.08;4272798;81;21543;-80
2022/05/14 03:15:29;;;;;;;19.42;9.08;;;;;;;10.73;71.18;99290.13;4255292;81;21033;-81
2022/05/14 03:21:30;;;;;;;19.15;9.25;;;;;;;10.59;71.47;99294.02;4270206;82;21973;-81
2022/05/14 03:27:32;;;;;;;11.75;7.95;;;;;;;10.90;72.43;99299.17;4281735;82;20997;-81
2022/05/14 03:33:34;;;;;;;14.65;8.20;;;;;;;11.07;72.43;99302.77;4258387;82;21617;-81
2022/05/14 03:39:35;;;;;;;10.03;6.78;;;;;;;11.09;72.54;99305.91;4279995;82;21004;-81
2022/05/14 03:45:37;;;;;;;10.43;6.67;;;;;;;11.16;72.43;99310.70;4238915;82;33802;-81
2022/05/14 03:51:38;;;;;;;8.68;6.97;;;;;;;11.23;73.05;99314.92;4134586;85;21467;-81
2022/05/14 03:57:40;;;;;;;9.08;6.90;;;;;;;11.29;73.13;99308.72;4170826;84;21049;-81
2022/05/14 04:03:42;;;;;;;16.40;8.65;;;;;;;11.38;73.27;99310.62;4105673;85;21058;-81
2022/05/14 04:09:43;;;;;;;11.80;7.85;;;;;;;11.26;73.54;99318.29;4124448;85;21581;-80
2022/05/14 04:15:45;;;;;;;14.30;7.92;;;;;;;11.49;74.05;99322.52;4128063;85;21039;-81
2022/05/14 04:21:47;;;;;;;9.78;6.95;;;;;;;11.63;73.53;99319.98;4093454;85;22061;-81
2022/05/14 04:27:49;;;;;;;15.45;6.22;;;;;;;11.82;73.83;99329.41;4128541;85;21990;-81
2022/05/14 04:33:50;;;;;;;10.75;7.60;;;;;;;12.08;73.75;99330.66;4132153;85;21092;-81
2022/05/14 04:39:52;;;;;;;12.10;6.58;;;;;;;12.31;73.38;99331.28;4128526;85;21078;-82
2022/05/14 04:46:00;;;;;;;9.05;6.35;;;;;;;12.59;73.22;99339.00;4092227;87;21022;-81
2022/05/14 04:52:03;;;;;;;14.35;8.08;;;;;;;12.84;72.99;99350.17;4118997;86;21031;-81
2022/05/14 04:58:08;;;;;;;16.45;8.23;;;;;;;12.97;72.65;99359.67;4125445;85;21106;-81
2022/05/14 05:04:08;;;;;;;15.85;8.10;;;;;;;13.10;72.35;99352.73;4128568;85;21117;-81
2022/05/14 05:10:10;;;;;;;12.93;8.05;;;;;;;13.28;72.15;99357.78;4090791;86;21107;-81
2022/05/14 05:16:11;;;;;;;13.03;7.97;;;;;;;13.48;72.14;99361.81;4167881;84;21057;-82
2022/05/14 05:22:13;;;;;;;14.87;8.63;;;;;;;13.72;71.60;99359.75;4105741;85;21117;-82
2022/05/14 05:28:14;;;;;;;15.53;6.92;;;;;;;13.96;71.45;99364.57;4105728;85;21522;-82
2022/05/14 05:34:15;;;;;;;12.18;7.12;;;;;;;14.29;70.75;99356.05;4112997;85;21112;-82
2022/05/14 05:40:17;;;;;;;14.45;7.55;;;;;;;14.48;70.10;99359.81;4080865;85;21567;-82
2022/05/14 05:46:19;;;;;;;18.07;7.30;;;;;;;14.58;69.99;99358.25;4180406;83;21091;-81
2022/05/14 05:52:20;;;;;;;12.20;6.08;;;;;;;14.69;69.40;99358.44;4170815;84;21530;-82
2022/05/14 05:58:21;;;;;;;10.88;5.83;;;;;;;14.78;68.59;99357.48;4165875;84;21054;-82
2022/05/14 06:04:24;;;;;;;9.55;5.62;;;;;;;14.89;68.67;99362.37;4166314;84;21448;-82
2022/05/14 06:10:27;;;;;;;10.38;5.03;;;;;;;15.00;68.02;99364.53;4169286;84;21066;-82
2022/05/14 06:16:28;;;;;;;10.68;4.85;;;;;;;15.18;67.65;99364.52;4170071;84;21038;-81
2022/05/14 06:22:29;;;;;;;12.35;5.85;;;;;;;15.38;67.03;99359.59;4123377;85;21035;-82
2022/05/14 06:28:32;;;;;;;7.42;4.83;;;;;;;15.56;66.78;99360.34;4171636;84;21065;-81
2022/05/14 06:34:33;;;;;;;14.95;6.28;;;;;;;15.69;67.00;99359.31;4119122;85;21007;-82
2022/05/14 06:40:36;;;;;;;12.15;5.20;;;;;;;15.89;65.99;99348.56;4117731;85;21555;-83
2022/05/14 06:46:37;;;;;;;10.48;5.25;;;;;;;16.03;65.02;99334.69;4102561;85;21033;-82
2022/05/14 06:52:42;;;;;;;8.28;4.62;;;;;;;16.26;64.83;99326.66;4123842;85;21022;-81
2022/05/14 06:58:48;;;;;;;12.75;4.75;;;;;;;16.58;63.82;99323.91;4082851;85;21000;-81
2022/05/14 07:11:12;;;;;;;10.98;3.98;;;;;;;17.01;63.43;99320.16;4148252;84;21498;-82
2022/05/14 07:17:14;;;;;;;6.75;3.75;;;;;;;17.13;62.73;99334.27;4141694;84;21061;-79
2022/05/14 07:23:15;;;;;;;9.70;3.52;;;;;;;17.13;60.75;99341.17;4151852;85;21026;-79
2022/05/14 07:29:23;;;;;;;10.28;4.40;;;;;;;17.67;61.10;99344.98;4141981;84;21453;-79
2022/05/14 07:35:24;;;;;;;6.95;4.30;;;;;;;18.28;60.11;99354.07;4140927;84;21121;-80
2022/05/14 07:41:28;;;;;;;10.50;3.17;;;;;;;18.68;59.21;99351.11;4146459;86;21602;-79
2022/05/14 07:47:30;;;;;;;8.98;3.25;;;;;;;19.03;58.66;99337.26;4145501;85;21034;-80
2022/05/14 07:53:32;;;;;;;11.55;3.27;;;;;;;19.54;58.31;99342.91;4144285;84;21114;-80
2022/05/14 07:59:36;;;;;;;8.98;3.20;;;;;;;19.71;56.59;99349.50;4028383;87;21050;-80
2022/05/14 08:05:37;;;;;;;9.98;3.42;;;;;;;19.71;56.80;99338.39;4144837;84;21101;-80
2022/05/14 08:11:38;;;;;;;7.12;3.25;;;;;;;19.83;55.45;99355.00;4160631;84;21081;-80
2022/05/14 08:17:42;;;;;;;6.12;3.33;;;;;;;19.77;54.81;99349.17;4164533;84;21094;-80
2022/05/14 08:30:04;;;;;;;5.65;3.08;;;;;;;19.72;53.55;99352.45;4101316;85;21074;-80
2022/05/14 08:36:05;;;;;;;5.60;2.87;;;;;;;19.66;52.29;99344.44;4109914;85;21077;-80
2022/05/14 08:42:11;;;;;;;9.35;3.60;;;;;;;19.56;52.00;99332.92;4076721;85;21072;-80
2022/05/14 08:48:27;;;;;;;7.30;3.75;;;;;;;19.82;51.87;99340.94;4179449;83;21138;-80
2022/05/14 08:54:28;;;;;;;9.50;2.80;;;;;;;20.13;52.22;99331.97;4108733;85;21032;-80
2022/05/14 09:00:30;;;;;;;8.10;2.85;;;;;;;20.26;51.64;99337.64;4116468;85;21039;-80
2022/05/14 09:06:32;;;;;;;8.40;3.30;;;;;;;20.45;50.52;99327.67;4115471;85;21440;-81
2022/05/14 09:12:38;;;;;;;3.83;2.17;;;;;;;20.71;50.10;99313.52;4108213;84;21104;-79
2022/05/14 09:18:48;;;;;;;5.17;2.00;;;;;;;20.79;49.11;99307.17;4036321;87;21067;-82
2022/05/14 09:25:26;;;;;;;7.70;2.37;;;;;;;20.86;48.80;99295.25;4037609;86;21130;-82
2022/05/14 09:31:32;;;;;;;3.47;1.65;;;;;;;21.61;47.28;99286.48;4092854;87;21054;-82
2022/05/14 09:37:33;;;;;;;7.70;1.80;;;;;;;22.44;46.23;99294.89;4035404;87;21039;-83
2022/05/14 09:43:37;;;;;;;5.33;1.95;;;;;;;22.75;46.71;99284.76;4091318;87;21043;-82
2022/05/14 09:49:41;;;;;;;4.62;1.65;;;;;;;23.50;45.49;99282.34;4091234;85;21063;-82
2022/05/14 09:55:54;;;;;;;5.45;1.80;;;;;;;23.90;45.00;99279.02;4105127;85;21114;-81
2022/05/14 10:02:25;;;;;;;4.87;1.60;;;;;;;23.99;44.39;99282.53;4100468;85;21452;-82
2022/05/14 10:09:02;;;;;;;2.67;1.40;;;;;;;24.17;44.19;99284.80;4033003;86;21091;-82
2022/05/14 10:15:28;;;;;;;5.60;1.65;;;;;;;23.92;39.90;99277.16;4123881;84;21538;-82
2022/05/14 10:21:44;;;;;;;4.23;1.60;;;;;;;23.88;42.18;99278.69;4164095;84;21006;-83
2022/05/14 10:28:12;;;;;;;7.63;2.13;;;;;;;24.12;41.84;99274.20;4104434;86;22004;-83
2022/05/14 10:34:19;;;;;;;5.25;1.77;;;;;;;24.31;41.27;99270.25;4114444;84;21723;-82
2022/05/14 10:40:26;;;;;;;6.42;1.80;;;;;;;24.28;40.56;99273.97;4098039;84;21106;-83
2022/05/14 10:46:29;;;;;;;6.87;2.10;;;;;;;24.87;40.04;99256.59;4119195;84;21650;-83
2022/05/14 10:52:30;;;;;;;4.37;1.62;;;;;;;24.90;36.98;99255.66;4138058;84;21101;-83
2022/05/14 10:58:57;;;;;;;3.62;1.95;;;;;;;25.79;38.72;99248.47;4139299;86;21522;-83
2022/05/14 11:05:01;;;;;;;4.85;1.92;;;;;;;26.30;38.18;99244.24;4140785;84;21102;-81
2022/05/14 11:11:31;;;;;;;5.55;2.12;;;;;;;25.36;38.37;99241.22;4131896;84;21039;-83
2022/05/14 11:17:41;;;;;;;11.48;2.30;;;;;;;25.53;37.53;99237.45;4126327;84;21002;-84
2022/05/14 11:23:59;;;;;;;3.85;1.80;;;;;;;25.31;37.17;99238.25;4121664;86;20997;-83
2022/05/14 11:30:07;;;;;;;5.62;1.60;;;;;;;24.39;37.34;99238.56;4126677;84;21095;-82
2022/05/14 11:36:22;;;;;;;3.98;1.30;;;;;;;24.89;37.33;99220.48;4133966;85;21152;-83
2022/05/14 11:42:29;;;;;;;5.35;1.22;;;;;;;24.71;37.57;99221.88;4135890;86;21083;-83
2022/05/14 11:48:38;;;;;;;5.28;1.60;;;;;;;24.82;37.47;99214.59;4128650;86;21777;-83
2022/05/14 11:55:11;;;;;;;4.97;1.50;;;;;;;24.46;36.88;99220.09;4130389;84;21093;-83
2022/05/14 12:01:17;;;;;;;4.15;1.35;;;;;;;24.77;36.70;99213.01;4130882;84;21116;-82
2022/05/14 12:07:42;;;;;;;7.97;2.15;;;;;;;23.98;36.23;99210.44;4132671;85;21012;-82
2022/05/14 12:14:07;;;;;;;8.35;1.55;;;;;;;23.52;35.54;99210.64;4146837;86;21076;-84
2022/05/14 12:20:09;;;;;;;5.05;1.55;;;;;;;23.30;36.39;99201.49;4140211;84;21082;-83
2022/05/14 12:26:25;;;;;;;5.65;1.65;;;;;;;23.72;36.23;99205.47;4090190;85;21452;-86
2022/05/14 12:38:48;;;;;;;3.65;1.35;;;;;;;23.12;35.71;99201.50;4102597;85;22067;-82
2022/05/14 12:44:51;;;;;;;5.72;1.25;;;;;;;22.80;36.37;99193.46;4093619;85;21027;-83
2022/05/14 12:50:56;;;;;;;3.75;1.40;;;;;;;22.61;37.70;99191.77;4087325;85;21136;-83
2022/05/14 12:57:05;;;;;;;5.10;1.40;;;;;;;22.52;37.54;99193.69;4089959;85;21034;-82
2022/05/14 13:03:18;;;;;;;4.50;1.67;;;;;;;22.79;38.37;99186.94;4128187;84;21134;-82
2022/05/14 13:09:22;;;;;;;5.08;1.52;;;;;;;22.63;36.82;99190.67;4119452;84;21111;-81
2022/05/14 13:15:41;;;;;;;2.83;1.20;;;;;;;22.81;37.05;99181.09;4127127;84;21019;-82
2022/05/14 13:21:50;;;;;;;5.20;1.25;;;;;;;22.75;37.39;99183.51;4131682;84;21075;-81
2022/05/14 13:27:52;;;;;;;9.43;1.55;;;;;;;23.08;37.36;99180.52;4125941;84;21902;-82
2022/05/14 13:37:07;;;;;;;6.72;1.20;;;;;;;22.96;37.35;99168.78;4095876;85;21112;-82
2022/05/14 13:40:31;;;;;;;3.80;1.22;;;;;;;22.90;37.13;99166.41;4165103;84;21122;-81
2022/05/14 13:46:51;;;;;;;4.87;1.70;;;;;;;22.89;36.94;99155.88;4171868;83;21055;-81
2022/05/14 13:52:54;;;;;;;6.55;1.70;;;;;;;22.51;36.75;99158.59;4176195;83;21067;-81
2022/05/14 13:59:10;;;;;;;5.17;1.50;;;;;;;22.17;37.57;99146.02;4162659;84;20964;-82
2022/05/14 14:05:17;;;;;;;6.72;1.82;;;;;;;22.36;37.47;99151.35;4160021;85;22036;-83
2022/05/14 14:11:22;;;;;;;7.53;1.55;;;;;;;22.09;37.38;99153.84;4153769;84;21082;-82
2022/05/14 14:17:23;;;;;;;5.28;2.15;;;;;;;22.07;36.97;99147.14;4145188;84;21089;-83
2022/05/14 14:23:29;;;;;;;5.53;1.75;;;;;;;22.22;37.15;99137.09;4147237;84;21012;-83
2022/05/14 14:29:30;;;;;;;3.23;1.30;;;;;;;22.30;36.77;99144.75;4154348;85;21937;-83
2022/05/14 14:35:32;;;;;;;4.67;2.17;;;;;;;22.50;37.15;99140.31;4147296;84;21102;-82
2022/05/14 14:41:35;;;;;;;6.62;1.98;;;;;;;22.50;37.17;99155.05;4143484;84;21074;-81
2022/05/14 14:47:44;;;;;;;5.00;2.20;;;;;;;22.38;37.07;99155.08;4143340;84;21035;-82
2022/05/14 14:53:46;;;;;;;7.75;1.95;;;;;;;22.11;37.23;99157.58;4140025;86;21015;-82
2022/05/14 14:59:47;;;;;;;6.95;1.72;;;;;;;22.31;37.20;99150.52;4145685;84;20991;-82
2022/05/14 15:05:51;;;;;;;5.28;1.77;;;;;;;22.44;36.89;99144.91;4141669;85;21019;-82
2022/05/14 15:11:53;;;;;;;8.45;2.00;;;;;;;22.42;37.12;99150.15;4155264;84;21151;-82
2022/05/14 15:17:55;;;;;;;4.80;1.80;;;;;;;22.38;37.07;99143.92;4160113;84;21083;-82
2022/05/14 15:23:58;;;;;;;5.28;2.05;;;;;;;22.20;36.68;99140.34;4157229;84;21058;-83
2022/05/14 15:30:00;;;;;;;6.90;2.30;;;;;;;21.97;37.17;99145.50;4116500;85;21054;-83
2022/05/14 15:36:01;;;;;;;4.28;2.00;;;;;;;21.77;37.26;99147.11;4101802;85;21062;-83
2022/05/14 15:42:09;;;;;;;4.25;2.08;;;;;;;21.58;37.40;99143.29;4114158;86;21170;-82
2022/05/14 15:48:20;;;;;;;5.87;2.27;;;;;;;21.48;37.34;99144.41;4118535;85;21019;-82
2022/05/14 15:54:22;;;;;;;5.80;2.25;;;;;;;21.31;38.10;99137.34;4118246;85;21055;-82
2022/05/14 16:00:25;;;;;;;5.55;2.08;;;;;;;21.22;38.27;99131.66;4097250;85;21123;-82
2022/05/14 16:18:20;;;;;;;5.55;2.27;;;;;;;20.92;38.34;99119.58;4414131;79;21939;-82
2022/05/14 16:24:23;;;;;;;4.97;2.67;;;;;;;20.90;39.12;99115.69;4427451;79;21006;-83
2022/05/14 16:30:26;;;;;;;7.83;2.65;;;;;;;20.70;40.23;99115.07;4425036;78;20999;-83
2022/05/14 16:36:29;;;;;;;5.17;2.12;;;;;;;20.66;39.94;99120.72;4423987;80;21085;-83
2022/05/14 16:42:30;;;;;;;5.85;2.20;;;;;;;20.65;40.35;99115.60;4434871;80;21077;-83
2022/05/14 16:48:33;;;;;;;5.00;2.80;;;;;;;20.57;40.26;99119.80;4427742;79;21049;-83
2022/05/14 16:54:34;;;;;;;3.95;2.52;;;;;;;20.43;40.58;99121.56;4422314;79;21086;-83
2022/05/14 17:00:41;;;;;;;8.73;2.80;;;;;;;20.35;40.64;99120.19;4416715;79;21005;-82
2022/05/14 17:06:43;;;;;;;5.22;2.52;;;;;;;20.17;40.30;99123.44;4448053;80;21401;-82
2022/05/14 17:12:47;;;;;;;6.90;2.60;;;;;;;20.03;40.83;99124.53;4353745;79;20984;-82
2022/05/14 17:18:49;;;;;;;8.35;3.15;;;;;;;19.80;41.49;99127.48;4390548;79;20979;-81
2022/05/14 17:24:50;;;;;;;5.55;2.90;;;;;;;19.58;42.37;99131.18;4376865;79;20984;-83
2022/05/14 17:30:51;;;;;;;6.67;3.75;;;;;;;19.43;42.39;99127.97;4379831;79;21560;-81
2022/05/14 17:43:12;;;;;;;8.68;4.22;;;;;;;19.17;42.95;99137.20;4403602;79;21039;-82
2022/05/14 17:49:13;;;;;;;7.75;3.47;;;;;;;19.07;43.13;99137.44;4386541;79;20969;-82
2022/05/14 17:55:16;;;;;;;10.00;3.60;;;;;;;18.93;43.68;99144.07;4392900;79;21050;-82
2022/05/14 18:01:17;;;;;;;13.00;3.70;;;;;;;18.76;44.23;99145.20;4381598;79;21043;-82
2022/05/14 18:07:18;;;;;;;6.33;3.58;;;;;;;18.60;44.56;99149.27;4372619;79;21024;-82
2022/05/14 18:13:20;;;;;;;7.03;3.40;;;;;;;18.46;44.62;99154.45;4308165;80;21098;-82
2022/05/14 18:19:25;;;;;;;9.48;3.42;;;;;;;18.30;45.02;99155.72;4309451;80;21061;-82
2022/05/14 18:25:26;;;;;;;22.05;13.28;;;;;;;18.14;45.27;99156.18;4297048;81;22301;-81
2022/05/14 18:31:29;;;;;;;21.30;12.98;;;;;;;17.96;45.69;99163.38;4297727;81;21617;-82
2022/05/14 18:37:31;;;;;;;11.75;6.30;;;;;;;17.77;46.11;99169.64;4295373;81;22287;-81
2022/05/14 18:43:32;;;;;;;7.25;4.97;;;;;;;17.63;46.33;99174.00;4301034;80;21071;-81
2022/05/14 18:49:34;;;;;;;9.90;5.40;;;;;;;17.50;46.75;99195.72;4294398;80;21989;-82
2022/05/14 18:55:35;;;;;;;10.15;5.62;;;;;;;17.36;47.17;99198.05;4288450;81;21034;-81
2022/05/14 19:01:37;;;;;;;6.87;4.75;;;;;;;17.19;47.40;99200.45;4283794;81;21984;-81
2022/05/14 19:07:38;;;;;;;9.55;5.42;;;;;;;17.02;48.09;99209.13;4295683;80;21091;-81
2022/05/14 19:13:39;;;;;;;16.62;6.78;;;;;;;16.93;48.67;99226.02;4253257;82;21031;-81
2022/05/14 19:19:41;;;;;;;9.90;6.65;;;;;;;16.76;49.28;99229.75;4301454;81;21051;-81
2022/05/14 19:25:43;;;;;;;14.33;9.20;;;;;;;16.60;49.76;99228.92;4278865;80;21003;-81
2022/05/14 19:31:45;;;;;;;16.27;9.15;;;;;;;16.50;50.18;99235.34;4294812;81;21031;-81
2022/05/14 19:37:52;;;;;;;12.90;8.85;;;;;;;16.45;50.49;99239.92;4303895;81;21614;-81
2022/05/14 19:43:59;;;;;;;13.00;8.15;;;;;;;16.34;50.92;99243.92;4237247;83;21013;-80
2022/05/14 19:50:03;;;;;;;14.30;7.92;;;;;;;16.22;52.02;99252.13;4268063;80;21071;-81
2022/05/14 19:56:04;;;;;;;18.42;8.35;;;;;;;16.14;52.10;99256.13;4296528;80;21008;-81
2022/05/14 20:02:07;;;;;;;14.35;8.43;;;;;;;15.98;52.71;99255.83;4297179;80;21039;-81
2022/05/14 20:08:08;;;;;;;17.90;9.83;;;;;;;15.76;52.79;99268.77;4306390;80;21051;-82
2022/05/14 20:14:10;;;;;;;24.75;11.22;;;;;;;15.51;53.50;99269.69;4394616;79;21022;-81
2022/05/14 20:26:30;;;;;;;19.40;10.55;;;;;;;15.25;54.48;99280.41;4393886;79;21356;-81
2022/05/14 20:32:32;;;;;;;18.57;10.53;;;;;;;15.07;55.06;99282.41;4399720;79;21079;-81
2022/05/14 20:38:33;;;;;;;12.98;10.28;;;;;;;14.95;56.23;99290.52;4391027;79;21023;-81
2022/05/14 20:44:35;;;;;;;13.48;9.20;;;;;;;14.81;56.74;99296.05;4388019;79;21043;-81
2022/05/14 20:50:37;;;;;;;16.42;10.63;;;;;;;14.76;57.45;99295.66;4390097;79;21468;-81
2022/05/14 20:56:38;;;;;;;19.02;12.00;;;;;;;14.74;57.93;99293.30;4307364;81;21080;-81
2022/05/14 21:02:40;;;;;;;35.63;22.67;;;;;;;14.54;57.99;99301.77;4395553;79;21567;-81
2022/05/14 21:08:41;;;;;;;26.37;12.68;;;;;;;14.49;58.59;99295.85;4353880;79;21046;-81
2022/05/14 21:14:43;;;;;;;15.00;10.82;;;;;;;14.46;59.12;99292.51;4246466;81;21027;-81
2022/05/14 21:20:44;;;;;;;11.22;9.95;;;;;;;14.38;60.39;99301.36;4294810;81;21031;-81
2022/05/14 21:26:45;;;;;;;16.42;8.93;;;;;;;14.30;60.20;99302.53;4270817;81;21075;-80
2022/05/14 21:32:49;;;;;;;13.13;8.43;;;;;;;14.23;60.66;99306.64;4290947;81;21878;-81
2022/05/14 21:38:51;;;;;;;14.58;8.38;;;;;;;14.29;61.40;99306.47;4296151;81;21079;-82
2022/05/14 21:44:54;;;;;;;15.18;9.58;;;;;;;14.29;61.36;99308.44;4254105;81;21099;-81
2022/05/14 21:50:55;;;;;;;20.27;12.18;;;;;;;14.19;61.55;99305.25;4220971;83;21022;-81
2022/05/14 21:56:57;;;;;;;17.35;10.65;;;;;;;14.01;61.64;99299.52;4249824;81;21030;-81
2022/05/14 22:03:02;;;;;;;15.72;11.12;;;;;;;14.01;62.18;99305.02;4256207;82;21947;-81
2022/05/14 22:09:04;;;;;;;17.92;10.20;;;;;;;13.84;62.36;99296.91;4255101;82;21067;-81
2022/05/14 22:15:09;;;;;;;13.50;8.08;;;;;;;13.64;62.85;99305.30;4347402;80;21039;-80
2022/05/14 22:21:10;;;;;;;12.50;9.50;;;;;;;13.53;63.41;99309.96;4361208;80;21016;-81
2022/05/14 22:27:11;;;;;;;13.78;9.60;;;;;;;13.52;63.49;99304.27;4360939;80;21135;-81
2022/05/14 22:33:13;;;;;;;20.48;10.65;;;;;;;13.49;64.08;99298.75;4352722;80;21111;-81
2022/05/14 22:39:14;;;;;;;12.98;9.25;;;;;;;13.47;64.35;99299.14;4353058;80;21008;-80
2022/05/14 22:45:17;;;;;;;15.72;10.98;;;;;;;13.34;65.15;99298.50;4344621;80;21071;-81
2022/05/14 22:51:19;;;;;;;11.00;8.50;;;;;;;13.32;65.35;99295.34;4372526;80;21020;-81
2022/05/14 22:57:20;;;;;;;14.03;9.95;;;;;;;13.24;65.65;99301.39;4385131;79;21433;-81
2022/05/14 23:03:22;;;;;;;16.90;12.33;;;;;;;13.20;66.35;99295.67;4349678;81;21039;-80
2022/05/14 23:09:23;;;;;;;14.18;9.85;;;;;;;13.18;66.35;99292.52;4372068;79;21042;-81
2022/05/14 23:15:25;;;;;;;17.60;12.58;;;;;;;13.03;66.59;99290.88;4324144;81;21044;-81
2022/05/14 23:21:27;;;;;;;18.60;13.10;;;;;;;12.64;66.64;99292.73;4403291;79;21659;-80
2022/05/14 23:27:28;;;;;;;18.05;12.55;;;;;;;12.46;67.21;99291.02;4376396;79;21995;-81
2022/05/14 23:33:29;;;;;;;21.10;12.43;;;;;;;12.29;67.72;99301.27;4393519;79;21038;-81
2022/05/14 23:39:31;;;;;;;22.50;14.13;;;;;;;12.23;68.48;99298.67;4396503;79;22051;-80
2022/05/14 23:45:32;;;;;;;15.68;12.07;;;;;;;12.17;68.43;99292.72;4394638;79;21047;-80
2022/05/14 23:51:35;;;;;;;18.95;12.90;;;;;;;12.11;69.19;99299.72;4400814;79;21089;-80
